메인 페이지
METAR-TAF:

METAR-TAF

공항 :

볼고그라드, 러시아

위도: 48-47N, 경도: 044-22E, 고도: 145m

현재 날씨관측

예보는 39분 전, 09:30시(UTC)에 발표되었습니다.
남서8kt풍과 풍을 오가는
온도 28°C
습도 27%
기압 1015 hPa
시정 10km 이상
고도 4000ft 상공 구름 조금

METAR: URWW 200930Z 23004MPS 180V280 9999 FEW040 28/07 Q1015 R24/010070 NOSIG

시각: 13:09 (10:09 UTC)

예보

예보는 2 시간 10분 전, 07:59시(UTC)에 발표되었습니다.
예보 대상 시간: 20일 09시부터 20일 18시까지 (UTC)
6kt, 순간 최대 풍속 16kt
시정 10km 이상
고도 4000ft 상공 구름 많음, 적란운.
일시적
20일 09시부터 20일 12시까지 (UTC)
남서10kt, 순간 최대 풍속 19kt
시정: 3100m
약한소나기
확률 40% :
일시적
20일 09시부터 20일 12시까지 (UTC)
뇌우, 약한비, 우박
일시적
20일 12시부터 20일 18시까지 (UTC)
남남동12kt, 순간 최대 풍속 21kt
시정: 3100m
약한소나기
확률 40% :
일시적
20일 12시부터 20일 18시까지 (UTC)
뇌우, 약한비, 우박

TAF: URWW 200759Z 2009/2018 19003G08MPS 9999 BKN040CB TEMPO 2009/2012 22005G10MPS 3100 -SHRA PROB40 TEMPO 2009/2012 -TSRAGR TEMPO 2012/2018 16006G11MPS 3100 -SHRA PROB40 TEMPO 2012/2018 -TSRAGR

4,000개 이상의 공항 관측 자료 및 예보 (METAR 및 TAF 보고).

지도상에서 검색 가능한 기상관측소가 노란 점과 빨간 점으로 표시되어 있습니다.

기상관측소 명을 보려면 표시 위로 마우스를 이동하세요.

날씨 관측과 예보를 보려면 클릭하세요.

지도 변경 : 확대하려면 엑스 표시가 있는 녹색 버튼, 축소하려면 빼기 표시가 있는 녹색 버튼, 다음 페이지의 지도를 보려면 녹색 화살표를 클릭하세요.


METAR-TAF: